Alto, Michigan
Current Conditions -  °F | °C
As of 10:53 PM on Tuesday 25 Nov 2014 (Local Time) from KGRR Reporting Station
Overcast Overcast  
Wind Chill: 23°   Ceiling: 2400
Heat Index: 29°   Visibility: 10mi
Dew Point: 22°   Wind: 6mph
Humidity: 75%   Direction: 180°S
Pressure: 30.18"   Gusts: NA
Location:  42.86°N, 85.38°W
Report Text: KGRR 260353Z 18005KT 10SM OVC024 M02/M06 A3018 RMK AO2 SLP229 T10171056 $
Loading
Personal Weather Stations






























Interactive Weather Map New forecast layout! Learn more

10-Day Weather Forecast

Advertisements
Track Severe Weather on mobile